sensor_id;sensor_type;location;lat;lon;timestamp;temperature;humidity
38488;DHT22;57384;51.986;4.458;2023-04-03T00:02:15;6.50;69.80
38488;DHT22;57384;51.986;4.458;2023-04-03T00:04:59;6.50;69.80
38488;DHT22;57384;51.986;4.458;2023-04-03T00:07:43;6.50;69.90
38488;DHT22;57384;51.986;4.458;2023-04-03T00:10:28;6.40;69.80
38488;DHT22;57384;51.986;4.458;2023-04-03T00:13:12;6.40;69.80
38488;DHT22;57384;51.986;4.458;2023-04-03T00:15:56;6.40;69.90
38488;DHT22;57384;51.986;4.458;2023-04-03T00:18:40;6.50;69.90
38488;DHT22;57384;51.986;4.458;2023-04-03T00:21:24;6.30;69.80
38488;DHT22;57384;51.986;4.458;2023-04-03T00:24:09;6.30;69.80
38488;DHT22;57384;51.986;4.458;2023-04-03T00:26:53;6.20;69.80
38488;DHT22;57384;51.986;4.458;2023-04-03T00:29:37;6.20;69.80
38488;DHT22;57384;51.986;4.458;2023-04-03T00:32:21;6.30;69.90
38488;DHT22;57384;51.986;4.458;2023-04-03T00:35:06;6.20;69.80
38488;DHT22;57384;51.986;4.458;2023-04-03T00:37:51;6.20;69.90
38488;DHT22;57384;51.986;4.458;2023-04-03T00:40:36;6.20;69.90
38488;DHT22;57384;51.986;4.458;2023-04-03T00:43:21;6.20;69.90
38488;DHT22;57384;51.986;4.458;2023-04-03T00:46:05;6.10;69.90
38488;DHT22;57384;51.986;4.458;2023-04-03T00:48:50;6.10;69.90
38488;DHT22;57384;51.986;4.458;2023-04-03T00:51:34;6.00;69.90
38488;DHT22;57384;51.986;4.458;2023-04-03T00:54:18;6.00;69.90
38488;DHT22;57384;51.986;4.458;2023-04-03T00:57:02;6.00;69.90
38488;DHT22;57384;51.986;4.458;2023-04-03T00:59:49;6.00;69.90
38488;DHT22;57384;51.986;4.458;2023-04-03T01:02:34;6.00;69.90
38488;DHT22;57384;51.986;4.458;2023-04-03T01:05:19;5.90;69.90
38488;DHT22;57384;51.986;4.458;2023-04-03T01:08:04;5.90;69.90
38488;DHT22;57384;51.986;4.458;2023-04-03T01:10:49;5.90;69.90
38488;DHT22;57384;51.986;4.458;2023-04-03T01:13:33;5.90;69.90
38488;DHT22;57384;51.986;4.458;2023-04-03T01:16:18;5.80;69.90
38488;DHT22;57384;51.986;4.458;2023-04-03T01:19:02;5.80;70.00
38488;DHT22;57384;51.986;4.458;2023-04-03T01:21:53;5.80;69.90
38488;DHT22;57384;51.986;4.458;2023-04-03T01:24:42;5.80;70.00
38488;DHT22;57384;51.986;4.458;2023-04-03T01:27:27;5.70;69.90
38488;DHT22;57384;51.986;4.458;2023-04-03T01:30:11;5.70;69.90
38488;DHT22;57384;51.986;4.458;2023-04-03T01:32:56;5.70;70.00
38488;DHT22;57384;51.986;4.458;2023-04-03T01:35:40;5.70;70.00
38488;DHT22;57384;51.986;4.458;2023-04-03T01:38:24;5.70;70.00
38488;DHT22;57384;51.986;4.458;2023-04-03T01:41:09;5.70;70.00
38488;DHT22;57384;51.986;4.458;2023-04-03T01:43:53;5.60;70.00
38488;DHT22;57384;51.986;4.458;2023-04-03T01:46:37;5.60;69.90
38488;DHT22;57384;51.986;4.458;2023-04-03T01:49:22;5.60;70.00
38488;DHT22;57384;51.986;4.458;2023-04-03T01:52:06;5.50;69.90
38488;DHT22;57384;51.986;4.458;2023-04-03T01:54:50;5.60;70.00
38488;DHT22;57384;51.986;4.458;2023-04-03T01:57:34;5.50;69.90
38488;DHT22;57384;51.986;4.458;2023-04-03T02:00:18;5.50;69.90
38488;DHT22;57384;51.986;4.458;2023-04-03T02:03:03;5.50;70.00
38488;DHT22;57384;51.986;4.458;2023-04-03T02:05:50;5.50;70.00
38488;DHT22;57384;51.986;4.458;2023-04-03T02:08:34;5.40;69.90
38488;DHT22;57384;51.986;4.458;2023-04-03T02:11:19;5.40;69.90
38488;DHT22;57384;51.986;4.458;2023-04-03T02:14:03;5.50;70.00
38488;DHT22;57384;51.986;4.458;2023-04-03T02:16:47;5.50;70.00
38488;DHT22;57384;51.986;4.458;2023-04-03T02:19:31;5.30;69.90
38488;DHT22;57384;51.986;4.458;2023-04-03T02:22:15;5.40;70.00
38488;DHT22;57384;51.986;4.458;2023-04-03T02:25:00;5.30;70.00
38488;DHT22;57384;51.986;4.458;2023-04-03T02:27:44;5.30;70.00
38488;DHT22;57384;51.986;4.458;2023-04-03T02:30:28;5.30;70.00
38488;DHT22;57384;51.986;4.458;2023-04-03T02:33:12;5.30;70.00
38488;DHT22;57384;51.986;4.458;2023-04-03T02:35:57;5.30;70.00
38488;DHT22;57384;51.986;4.458;2023-04-03T02:38:41;5.20;69.90
38488;DHT22;57384;51.986;4.458;2023-04-03T02:41:25;5.20;70.00
38488;DHT22;57384;51.986;4.458;2023-04-03T02:44:10;5.20;70.00
38488;DHT22;57384;51.986;4.458;2023-04-03T02:46:54;5.20;70.00
38488;DHT22;57384;51.986;4.458;2023-04-03T02:49:38;5.10;70.00
38488;DHT22;57384;51.986;4.458;2023-04-03T02:52:23;5.10;70.00
38488;DHT22;57384;51.986;4.458;2023-04-03T02:55:07;5.10;70.00
38488;DHT22;57384;51.986;4.458;2023-04-03T02:57:51;5.10;70.00
38488;DHT22;57384;51.986;4.458;2023-04-03T03:00:36;5.00;69.90
38488;DHT22;57384;51.986;4.458;2023-04-03T03:03:20;5.00;69.90
38488;DHT22;57384;51.986;4.458;2023-04-03T03:06:05;5.00;69.90
38488;DHT22;57384;51.986;4.458;2023-04-03T03:08:50;5.00;70.00
38488;DHT22;57384;51.986;4.458;2023-04-03T03:11:34;4.90;69.90
38488;DHT22;57384;51.986;4.458;2023-04-03T03:14:18;5.00;70.00
38488;DHT22;57384;51.986;4.458;2023-04-03T03:17:04;4.90;69.90
38488;DHT22;57384;51.986;4.458;2023-04-03T03:19:48;4.90;69.90
38488;DHT22;57384;51.986;4.458;2023-04-03T03:22:35;4.90;70.00
38488;DHT22;57384;51.986;4.458;2023-04-03T03:25:19;4.80;69.90
38488;DHT22;57384;51.986;4.458;2023-04-03T03:28:04;4.80;69.90
38488;DHT22;57384;51.986;4.458;2023-04-03T03:30:48;4.80;70.00
38488;DHT22;57384;51.986;4.458;2023-04-03T03:33:32;4.80;70.00
38488;DHT22;57384;51.986;4.458;2023-04-03T03:36:16;4.80;70.00
38488;DHT22;57384;51.986;4.458;2023-04-03T03:39:01;4.70;69.90
38488;DHT22;57384;51.986;4.458;2023-04-03T03:41:45;4.70;69.90
38488;DHT22;57384;51.986;4.458;2023-04-03T03:44:29;4.70;70.00
38488;DHT22;57384;51.986;4.458;2023-04-03T03:47:13;4.70;70.00
38488;DHT22;57384;51.986;4.458;2023-04-03T03:49:57;4.60;69.90
38488;DHT22;57384;51.986;4.458;2023-04-03T03:52:42;4.60;69.90
38488;DHT22;57384;51.986;4.458;2023-04-03T03:55:26;4.60;69.90
38488;DHT22;57384;51.986;4.458;2023-04-03T03:58:10;4.60;70.00
38488;DHT22;57384;51.986;4.458;2023-04-03T04:01:08;4.60;70.00
38488;DHT22;57384;51.986;4.458;2023-04-03T04:03:52;4.50;69.90
38488;DHT22;57384;51.986;4.458;2023-04-03T04:06:36;4.50;69.90
38488;DHT22;57384;51.986;4.458;2023-04-03T04:09:20;4.50;69.90
38488;DHT22;57384;51.986;4.458;2023-04-03T04:12:05;4.50;69.90
38488;DHT22;57384;51.986;4.458;2023-04-03T04:14:50;4.50;70.00
38488;DHT22;57384;51.986;4.458;2023-04-03T04:17:36;4.50;70.00
38488;DHT22;57384;51.986;4.458;2023-04-03T04:20:23;4.40;70.00
38488;DHT22;57384;51.986;4.458;2023-04-03T04:23:07;4.40;69.90
38488;DHT22;57384;51.986;4.458;2023-04-03T04:25:52;4.40;69.90
38488;DHT22;57384;51.986;4.458;2023-04-03T04:28:36;4.30;69.90
38488;DHT22;57384;51.986;4.458;2023-04-03T04:31:20;4.20;69.80
38488;DHT22;57384;51.986;4.458;2023-04-03T04:34:05;4.30;69.90
38488;DHT22;57384;51.986;4.458;2023-04-03T04:36:49;4.30;69.90
38488;DHT22;57384;51.986;4.458;2023-04-03T04:39:33;4.30;69.90
38488;DHT22;57384;51.986;4.458;2023-04-03T04:42:20;4.30;69.90
38488;DHT22;57384;51.986;4.458;2023-04-03T04:45:04;4.30;69.90
38488;DHT22;57384;51.986;4.458;2023-04-03T04:47:48;4.20;69.80
38488;DHT22;57384;51.986;4.458;2023-04-03T04:50:36;4.20;69.80
38488;DHT22;57384;51.986;4.458;2023-04-03T04:53:20;4.20;69.90
38488;DHT22;57384;51.986;4.458;2023-04-03T04:56:04;4.20;69.90
38488;DHT22;57384;51.986;4.458;2023-04-03T04:58:48;4.20;69.90
38488;DHT22;57384;51.986;4.458;2023-04-03T05:01:33;4.10;69.80
38488;DHT22;57384;51.986;4.458;2023-04-03T05:04:17;4.10;69.80
38488;DHT22;57384;51.986;4.458;2023-04-03T05:07:01;4.10;69.90
38488;DHT22;57384;51.986;4.458;2023-04-03T05:09:45;4.10;69.90
38488;DHT22;57384;51.986;4.458;2023-04-03T05:12:30;4.10;69.90
38488;DHT22;57384;51.986;4.458;2023-04-03T05:15:19;4.10;69.90
38488;DHT22;57384;51.986;4.458;2023-04-03T05:18:06;4.00;69.90
38488;DHT22;57384;51.986;4.458;2023-04-03T05:20:50;4.10;69.90
38488;DHT22;57384;51.986;4.458;2023-04-03T05:23:35;4.00;69.80
38488;DHT22;57384;51.986;4.458;2023-04-03T05:26:22;4.00;69.90
38488;DHT22;57384;51.986;4.458;2023-04-03T05:29:09;4.00;69.90
38488;DHT22;57384;51.986;4.458;2023-04-03T05:31:53;3.90;69.80
38488;DHT22;57384;51.986;4.458;2023-04-03T05:34:40;4.00;69.90
38488;DHT22;57384;51.986;4.458;2023-04-03T05:37:24;3.90;69.80
38488;DHT22;57384;51.986;4.458;2023-04-03T05:40:09;3.90;69.80
38488;DHT22;57384;51.986;4.458;2023-04-03T05:42:53;3.90;69.80
38488;DHT22;57384;51.986;4.458;2023-04-03T05:45:37;3.90;69.80
38488;DHT22;57384;51.986;4.458;2023-04-03T05:48:25;3.90;69.80
38488;DHT22;57384;51.986;4.458;2023-04-03T05:51:13;3.90;69.80
38488;DHT22;57384;51.986;4.458;2023-04-03T05:54:03;3.90;69.80
38488;DHT22;57384;51.986;4.458;2023-04-03T05:56:49;3.90;69.80
38488;DHT22;57384;51.986;4.458;2023-04-03T05:59:33;3.80;69.70
38488;DHT22;57384;51.986;4.458;2023-04-03T06:02:18;3.80;69.80
38488;DHT22;57384;51.986;4.458;2023-04-03T06:05:03;3.80;69.70
38488;DHT22;57384;51.986;4.458;2023-04-03T06:07:47;3.80;69.70
38488;DHT22;57384;51.986;4.458;2023-04-03T06:10:31;3.90;69.80
38488;DHT22;57384;51.986;4.458;2023-04-03T06:13:18;3.90;69.70
38488;DHT22;57384;51.986;4.458;2023-04-03T06:16:02;3.90;69.70
38488;DHT22;57384;51.986;4.458;2023-04-03T06:18:46;3.90;69.70
38488;DHT22;57384;51.986;4.458;2023-04-03T06:21:31;3.90;69.70
38488;DHT22;57384;51.986;4.458;2023-04-03T06:24:15;3.90;69.60
38488;DHT22;57384;51.986;4.458;2023-04-03T06:27:00;3.90;69.60
38488;DHT22;57384;51.986;4.458;2023-04-03T06:29:47;3.90;69.60
38488;DHT22;57384;51.986;4.458;2023-04-03T06:35:24;4.00;69.60
38488;DHT22;57384;51.986;4.458;2023-04-03T06:38:10;4.00;69.50
38488;DHT22;57384;51.986;4.458;2023-04-03T06:40:54;4.10;69.60
38488;DHT22;57384;51.986;4.458;2023-04-03T06:43:38;4.00;69.50
38488;DHT22;57384;51.986;4.458;2023-04-03T06:46:23;4.10;69.50
38488;DHT22;57384;51.986;4.458;2023-04-03T06:49:10;4.10;69.50
38488;DHT22;57384;51.986;4.458;2023-04-03T06:51:55;4.10;69.40
38488;DHT22;57384;51.986;4.458;2023-04-03T06:54:39;4.20;69.50
38488;DHT22;57384;51.986;4.458;2023-04-03T06:57:24;4.20;69.40
38488;DHT22;57384;51.986;4.458;2023-04-03T07:00:11;4.20;69.30
38488;DHT22;57384;51.986;4.458;2023-04-03T07:02:56;4.30;69.40
38488;DHT22;57384;51.986;4.458;2023-04-03T07:05:43;4.40;69.30
38488;DHT22;57384;51.986;4.458;2023-04-03T07:08:27;4.50;69.30
38488;DHT22;57384;51.986;4.458;2023-04-03T07:11:14;4.50;69.20
38488;DHT22;57384;51.986;4.458;2023-04-03T07:14:01;4.60;69.20
38488;DHT22;57384;51.986;4.458;2023-04-03T07:16:46;4.70;69.10
38488;DHT22;57384;51.986;4.458;2023-04-03T07:19:32;4.70;69.00
38488;DHT22;57384;51.986;4.458;2023-04-03T07:22:17;4.80;69.00
38488;DHT22;57384;51.986;4.458;2023-04-03T07:37:44;5.40;68.70
38488;DHT22;57384;51.986;4.458;2023-04-03T07:43:45;5.70;68.80
38488;DHT22;57384;51.986;4.458;2023-04-03T07:49:48;6.00;68.50
38488;DHT22;57384;51.986;4.458;2023-04-03T07:58:52;6.40;68.40
38488;DHT22;57384;51.986;4.458;2023-04-03T08:04:43;6.70;68.30
38488;DHT22;57384;51.986;4.458;2023-04-03T08:07:35;6.80;68.20
38488;DHT22;57384;51.986;4.458;2023-04-03T08:16:58;7.20;68.10
38488;DHT22;57384;51.986;4.458;2023-04-03T08:35:27;8.30;67.70
38488;DHT22;57384;51.986;4.458;2023-04-03T08:38:14;8.40;67.70
38488;DHT22;57384;51.986;4.458;2023-04-03T08:53:21;9.20;67.40
38488;DHT22;57384;51.986;4.458;2023-04-03T08:56:15;9.40;67.40
38488;DHT22;57384;51.986;4.458;2023-04-03T08:59:10;9.60;67.40
38488;DHT22;57384;51.986;4.458;2023-04-03T09:02:16;9.70;67.30
38488;DHT22;57384;51.986;4.458;2023-04-03T09:05:16;9.90;67.30
38488;DHT22;57384;51.986;4.458;2023-04-03T09:23:08;10.90;67.20
38488;DHT22;57384;51.986;4.458;2023-04-03T09:26:04;11.10;67.20
38488;DHT22;57384;51.986;4.458;2023-04-03T09:32:38;11.40;66.90
38488;DHT22;57384;51.986;4.458;2023-04-03T09:35:17;11.60;66.90
38488;DHT22;57384;51.986;4.458;2023-04-03T09:38:14;11.70;66.80
38488;DHT22;57384;51.986;4.458;2023-04-03T09:44:25;12.00;66.60
38488;DHT22;57384;51.986;4.458;2023-04-03T09:47:24;12.10;66.50
38488;DHT22;57384;51.986;4.458;2023-04-03T09:56:40;12.50;65.90
38488;DHT22;57384;51.986;4.458;2023-04-03T09:59:24;12.60;65.70
38488;DHT22;57384;51.986;4.458;2023-04-03T10:04:59;12.70;65.40
38488;DHT22;57384;51.986;4.458;2023-04-03T10:07:47;12.80;65.20
38488;DHT22;57384;51.986;4.458;2023-04-03T10:13:34;13.00;64.70
38488;DHT22;57384;51.986;4.458;2023-04-03T10:37:52;13.90;64.00
38488;DHT22;57384;51.986;4.458;2023-04-03T10:41:02;14.00;64.00
38488;DHT22;57384;51.986;4.458;2023-04-03T11:01:35;14.70;63.40
38488;DHT22;57384;51.986;4.458;2023-04-03T11:04:21;14.80;63.30
38488;DHT22;57384;51.986;4.458;2023-04-03T11:07:17;14.80;63.20
38488;DHT22;57384;51.986;4.458;2023-04-03T11:10:03;14.90;63.00
38488;DHT22;57384;51.986;4.458;2023-04-03T11:12:57;14.90;62.90
38488;DHT22;57384;51.986;4.458;2023-04-03T11:15:48;15.00;62.70
38488;DHT22;57384;51.986;4.458;2023-04-03T11:18:41;15.10;62.50
38488;DHT22;57384;51.986;4.458;2023-04-03T11:21:32;15.20;62.40
38488;DHT22;57384;51.986;4.458;2023-04-03T11:24:20;15.40;62.40
38488;DHT22;57384;51.986;4.458;2023-04-03T11:27:15;15.50;62.30
38488;DHT22;57384;51.986;4.458;2023-04-03T11:30:02;15.60;62.30
38488;DHT22;57384;51.986;4.458;2023-04-03T11:32:56;15.70;62.10
38488;DHT22;57384;51.986;4.458;2023-04-03T11:35:43;15.80;61.70
38488;DHT22;57384;51.986;4.458;2023-04-03T11:38:33;15.90;61.50
38488;DHT22;57384;51.986;4.458;2023-04-03T11:41:20;16.10;61.50
38488;DHT22;57384;51.986;4.458;2023-04-03T11:53:38;16.60;60.50
38488;DHT22;57384;51.986;4.458;2023-04-03T12:01:59;17.10;60.40
38488;DHT22;57384;51.986;4.458;2023-04-03T12:11:36;17.50;59.40
38488;DHT22;57384;51.986;4.458;2023-04-03T12:14:03;17.60;59.00
38488;DHT22;57384;51.986;4.458;2023-04-03T12:16:47;17.70;58.90
38488;DHT22;57384;51.986;4.458;2023-04-03T12:19:37;17.80;58.80
38488;DHT22;57384;51.986;4.458;2023-04-03T12:22:28;18.00;58.80
38488;DHT22;57384;51.986;4.458;2023-04-03T12:28:23;18.30;58.40
38488;DHT22;57384;51.986;4.458;2023-04-03T12:48:57;19.10;56.50
38488;DHT22;57384;51.986;4.458;2023-04-03T12:51:42;19.30;56.30
38488;DHT22;57384;51.986;4.458;2023-04-03T12:54:31;19.40;56.20
38488;DHT22;57384;51.986;4.458;2023-04-03T12:58:01;19.60;56.40
38488;DHT22;57384;51.986;4.458;2023-04-03T13:00:41;19.80;56.50
38488;DHT22;57384;51.986;4.458;2023-04-03T13:03:39;19.90;55.60
38488;DHT22;57384;51.986;4.458;2023-04-03T13:06:24;20.10;55.10
38488;DHT22;57384;51.986;4.458;2023-04-03T13:12:16;20.30;55.60
38488;DHT22;57384;51.986;4.458;2023-04-03T13:27:58;21.00;56.00
38488;DHT22;57384;51.986;4.458;2023-04-03T13:40:53;21.40;56.00
38488;DHT22;57384;51.986;4.458;2023-04-03T13:43:39;21.40;55.80
38488;DHT22;57384;51.986;4.458;2023-04-03T13:46:27;21.30;56.30
38488;DHT22;57384;51.986;4.458;2023-04-03T13:55:26;20.80;57.00
38488;DHT22;57384;51.986;4.458;2023-04-03T14:01:19;20.30;57.30
38488;DHT22;57384;51.986;4.458;2023-04-03T14:04:11;20.10;57.50
38488;DHT22;57384;51.986;4.458;2023-04-03T14:13:08;19.50;58.20
38488;DHT22;57384;51.986;4.458;2023-04-03T14:19:00;19.10;58.50
38488;DHT22;57384;51.986;4.458;2023-04-03T14:21:44;19.00;58.10
38488;DHT22;57384;51.986;4.458;2023-04-03T14:24:31;19.00;57.70
38488;DHT22;57384;51.986;4.458;2023-04-03T14:30:35;19.00;56.90
38488;DHT22;57384;51.986;4.458;2023-04-03T14:33:28;18.80;56.90
38488;DHT22;57384;51.986;4.458;2023-04-03T14:36:14;18.60;56.90
38488;DHT22;57384;51.986;4.458;2023-04-03T14:48:09;17.90;56.90
38488;DHT22;57384;51.986;4.458;2023-04-03T14:51:10;17.60;56.70
38488;DHT22;57384;51.986;4.458;2023-04-03T14:53:58;17.30;56.20
38488;DHT22;57384;51.986;4.458;2023-04-03T14:56:42;17.20;56.40
38488;DHT22;57384;51.986;4.458;2023-04-03T14:59:35;16.90;56.50
38488;DHT22;57384;51.986;4.458;2023-04-03T15:08:24;16.60;56.40
38488;DHT22;57384;51.986;4.458;2023-04-03T15:11:11;16.50;56.30
38488;DHT22;57384;51.986;4.458;2023-04-03T15:13:59;16.30;56.40
38488;DHT22;57384;51.986;4.458;2023-04-03T15:16:43;16.20;56.60
38488;DHT22;57384;51.986;4.458;2023-04-03T15:19:27;16.00;56.40
38488;DHT22;57384;51.986;4.458;2023-04-03T15:22:13;15.90;56.50
38488;DHT22;57384;51.986;4.458;2023-04-03T15:25:05;15.70;56.60
38488;DHT22;57384;51.986;4.458;2023-04-03T15:27:49;15.60;56.70
38488;DHT22;57384;51.986;4.458;2023-04-03T15:30:36;15.50;56.50
38488;DHT22;57384;51.986;4.458;2023-04-03T15:36:41;15.30;56.10
38488;DHT22;57384;51.986;4.458;2023-04-03T15:39:28;15.20;56.20
38488;DHT22;57384;51.986;4.458;2023-04-03T15:42:12;15.00;56.20
38488;DHT22;57384;51.986;4.458;2023-04-03T15:45:03;14.80;56.20
38488;DHT22;57384;51.986;4.458;2023-04-03T15:47:50;14.70;56.00
38488;DHT22;57384;51.986;4.458;2023-04-03T15:50:40;14.60;56.00
38488;DHT22;57384;51.986;4.458;2023-04-03T15:53:24;14.50;56.00
38488;DHT22;57384;51.986;4.458;2023-04-03T15:56:09;14.30;55.70
38488;DHT22;57384;51.986;4.458;2023-04-03T15:58:56;14.30;55.80
38488;DHT22;57384;51.986;4.458;2023-04-03T16:01:40;14.10;55.90
38488;DHT22;57384;51.986;4.458;2023-04-03T16:04:27;14.10;56.10
38488;DHT22;57384;51.986;4.458;2023-04-03T16:07:11;14.00;56.20
38488;DHT22;57384;51.986;4.458;2023-04-03T16:09:56;13.90;56.10
38488;DHT22;57384;51.986;4.458;2023-04-03T16:12:42;13.80;56.20
38488;DHT22;57384;51.986;4.458;2023-04-03T16:18:38;13.60;56.20
38488;DHT22;57384;51.986;4.458;2023-04-03T16:21:22;13.50;56.20
38488;DHT22;57384;51.986;4.458;2023-04-03T16:24:10;13.40;56.10
38488;DHT22;57384;51.986;4.458;2023-04-03T16:26:54;13.30;56.30
38488;DHT22;57384;51.986;4.458;2023-04-03T16:29:57;13.20;55.60
38488;DHT22;57384;51.986;4.458;2023-04-03T16:32:41;13.10;55.60
38488;DHT22;57384;51.986;4.458;2023-04-03T16:35:25;13.00;55.70
38488;DHT22;57384;51.986;4.458;2023-04-03T16:38:09;12.90;55.80
38488;DHT22;57384;51.986;4.458;2023-04-03T16:40:53;12.80;55.90
38488;DHT22;57384;51.986;4.458;2023-04-03T16:43:37;12.70;55.80
38488;DHT22;57384;51.986;4.458;2023-04-03T16:46:22;12.60;55.80
38488;DHT22;57384;51.986;4.458;2023-04-03T16:49:06;12.50;55.70
38488;DHT22;57384;51.986;4.458;2023-04-03T16:51:50;12.40;55.70
38488;DHT22;57384;51.986;4.458;2023-04-03T16:54:34;12.30;55.60
38488;DHT22;57384;51.986;4.458;2023-04-03T16:57:26;12.30;55.60
38488;DHT22;57384;51.986;4.458;2023-04-03T17:00:13;12.10;55.40
38488;DHT22;57384;51.986;4.458;2023-04-03T17:03:01;12.10;55.50
38488;DHT22;57384;51.986;4.458;2023-04-03T17:05:48;12.00;55.60
38488;DHT22;57384;51.986;4.458;2023-04-03T17:11:55;11.90;55.40
38488;DHT22;57384;51.986;4.458;2023-04-03T17:14:42;11.80;55.30
38488;DHT22;57384;51.986;4.458;2023-04-03T17:17:32;11.70;55.30
38488;DHT22;57384;51.986;4.458;2023-04-03T17:20:34;11.60;55.20
38488;DHT22;57384;51.986;4.458;2023-04-03T17:23:22;11.50;55.20
38488;DHT22;57384;51.986;4.458;2023-04-03T17:26:14;11.50;55.30
38488;DHT22;57384;51.986;4.458;2023-04-03T17:32:03;11.40;55.30
38488;DHT22;57384;51.986;4.458;2023-04-03T17:34:47;11.30;55.40
38488;DHT22;57384;51.986;4.458;2023-04-03T17:37:31;11.20;55.40
38488;DHT22;57384;51.986;4.458;2023-04-03T17:40:15;11.20;55.40
38488;DHT22;57384;51.986;4.458;2023-04-03T17:43:02;11.10;55.30
38488;DHT22;57384;51.986;4.458;2023-04-03T17:45:50;11.10;55.30
38488;DHT22;57384;51.986;4.458;2023-04-03T17:51:13;10.90;55.30
38488;DHT22;57384;51.986;4.458;2023-04-03T17:53:59;10.90;55.40
38488;DHT22;57384;51.986;4.458;2023-04-03T17:56:51;10.80;55.40
38488;DHT22;57384;51.986;4.458;2023-04-03T17:59:35;10.70;55.40
38488;DHT22;57384;51.986;4.458;2023-04-03T18:02:22;10.60;55.40
38488;DHT22;57384;51.986;4.458;2023-04-03T18:05:06;10.60;55.50
38488;DHT22;57384;51.986;4.458;2023-04-03T18:07:53;10.60;55.50
38488;DHT22;57384;51.986;4.458;2023-04-03T18:10:38;10.50;55.40
38488;DHT22;57384;51.986;4.458;2023-04-03T18:13:23;10.40;55.50
38488;DHT22;57384;51.986;4.458;2023-04-03T18:16:08;10.40;55.50
38488;DHT22;57384;51.986;4.458;2023-04-03T18:18:54;10.40;55.60
38488;DHT22;57384;51.986;4.458;2023-04-03T18:21:39;10.30;55.60
38488;DHT22;57384;51.986;4.458;2023-04-03T18:24:23;10.20;55.60
38488;DHT22;57384;51.986;4.458;2023-04-03T18:27:15;10.20;55.60
38488;DHT22;57384;51.986;4.458;2023-04-03T18:30:04;10.10;55.70
38488;DHT22;57384;51.986;4.458;2023-04-03T18:32:49;10.10;55.80
38488;DHT22;57384;51.986;4.458;2023-04-03T18:35:36;10.00;55.80
38488;DHT22;57384;51.986;4.458;2023-04-03T18:38:23;10.00;55.80
38488;DHT22;57384;51.986;4.458;2023-04-03T18:41:07;9.90;55.90
38488;DHT22;57384;51.986;4.458;2023-04-03T18:43:51;9.80;55.90
38488;DHT22;57384;51.986;4.458;2023-04-03T18:46:39;9.80;56.00
38488;DHT22;57384;51.986;4.458;2023-04-03T18:49:23;9.80;56.10
38488;DHT22;57384;51.986;4.458;2023-04-03T18:52:08;9.70;56.10
38488;DHT22;57384;51.986;4.458;2023-04-03T18:54:52;9.60;56.20
38488;DHT22;57384;51.986;4.458;2023-04-03T18:57:36;9.60;56.30
38488;DHT22;57384;51.986;4.458;2023-04-03T19:00:23;9.50;56.40
38488;DHT22;57384;51.986;4.458;2023-04-03T19:03:09;9.50;56.40
38488;DHT22;57384;51.986;4.458;2023-04-03T19:05:57;9.40;56.50
38488;DHT22;57384;51.986;4.458;2023-04-03T19:08:52;9.40;56.60
38488;DHT22;57384;51.986;4.458;2023-04-03T19:11:42;9.40;56.60
38488;DHT22;57384;51.986;4.458;2023-04-03T19:14:26;9.30;56.70
38488;DHT22;57384;51.986;4.458;2023-04-03T19:17:12;9.20;56.70
38488;DHT22;57384;51.986;4.458;2023-04-03T19:19:56;9.20;56.80
38488;DHT22;57384;51.986;4.458;2023-04-03T19:22:40;9.10;56.80
38488;DHT22;57384;51.986;4.458;2023-04-03T19:25:27;9.10;56.90
38488;DHT22;57384;51.986;4.458;2023-04-03T19:31:16;9.00;56.90
38488;DHT22;57384;51.986;4.458;2023-04-03T19:34:00;8.90;56.90
38488;DHT22;57384;51.986;4.458;2023-04-03T19:36:44;8.90;56.90
38488;DHT22;57384;51.986;4.458;2023-04-03T19:39:30;8.80;56.90
38488;DHT22;57384;51.986;4.458;2023-04-03T19:42:20;8.80;56.90
38488;DHT22;57384;51.986;4.458;2023-04-03T19:45:08;8.70;56.90
38488;DHT22;57384;51.986;4.458;2023-04-03T19:47:53;8.70;57.00
38488;DHT22;57384;51.986;4.458;2023-04-03T19:50:45;8.60;57.00
38488;DHT22;57384;51.986;4.458;2023-04-03T19:53:32;8.60;57.10
38488;DHT22;57384;51.986;4.458;2023-04-03T19:56:19;8.50;57.00
38488;DHT22;57384;51.986;4.458;2023-04-03T19:59:03;8.50;57.10
38488;DHT22;57384;51.986;4.458;2023-04-03T20:01:50;8.40;57.10
38488;DHT22;57384;51.986;4.458;2023-04-03T20:04:38;8.40;57.10
38488;DHT22;57384;51.986;4.458;2023-04-03T20:07:25;8.40;57.10
38488;DHT22;57384;51.986;4.458;2023-04-03T20:10:12;8.30;57.20
38488;DHT22;57384;51.986;4.458;2023-04-03T20:12:56;8.30;57.20
38488;DHT22;57384;51.986;4.458;2023-04-03T20:15:48;8.20;57.20
38488;DHT22;57384;51.986;4.458;2023-04-03T20:18:33;8.10;57.20
38488;DHT22;57384;51.986;4.458;2023-04-03T20:21:17;8.10;57.20
38488;DHT22;57384;51.986;4.458;2023-04-03T20:24:02;8.10;57.30
38488;DHT22;57384;51.986;4.458;2023-04-03T20:26:49;8.10;57.30
38488;DHT22;57384;51.986;4.458;2023-04-03T20:29:34;8.00;57.30
38488;DHT22;57384;51.986;4.458;2023-04-03T20:32:25;8.00;57.30
38488;DHT22;57384;51.986;4.458;2023-04-03T20:35:09;7.90;57.40
38488;DHT22;57384;51.986;4.458;2023-04-03T20:37:53;7.90;57.40
38488;DHT22;57384;51.986;4.458;2023-04-03T20:40:37;7.90;57.40
38488;DHT22;57384;51.986;4.458;2023-04-03T20:43:21;7.80;57.40
38488;DHT22;57384;51.986;4.458;2023-04-03T20:46:06;7.80;57.40
38488;DHT22;57384;51.986;4.458;2023-04-03T20:48:50;7.80;57.50
38488;DHT22;57384;51.986;4.458;2023-04-03T20:51:34;7.70;57.50
38488;DHT22;57384;51.986;4.458;2023-04-03T20:54:18;7.60;57.50
38488;DHT22;57384;51.986;4.458;2023-04-03T20:57:10;7.60;57.50
38488;DHT22;57384;51.986;4.458;2023-04-03T21:00:04;7.50;57.50
38488;DHT22;57384;51.986;4.458;2023-04-03T21:02:48;7.60;57.60
38488;DHT22;57384;51.986;4.458;2023-04-03T21:05:32;7.50;57.50
38488;DHT22;57384;51.986;4.458;2023-04-03T21:20:10;7.30;57.60
38488;DHT22;57384;51.986;4.458;2023-04-03T21:22:55;7.20;57.60
38488;DHT22;57384;51.986;4.458;2023-04-03T21:25:39;7.30;57.60
38488;DHT22;57384;51.986;4.458;2023-04-03T21:28:23;7.20;57.60
38488;DHT22;57384;51.986;4.458;2023-04-03T21:31:07;7.20;57.60
38488;DHT22;57384;51.986;4.458;2023-04-03T21:33:54;7.10;57.60
38488;DHT22;57384;51.986;4.458;2023-04-03T21:36:38;7.10;57.60
38488;DHT22;57384;51.986;4.458;2023-04-03T21:39:30;7.00;57.60
38488;DHT22;57384;51.986;4.458;2023-04-03T21:42:18;7.00;57.60
38488;DHT22;57384;51.986;4.458;2023-04-03T21:45:02;6.90;57.60
38488;DHT22;57384;51.986;4.458;2023-04-03T21:47:46;7.00;57.70
38488;DHT22;57384;51.986;4.458;2023-04-03T21:50:30;6.90;57.70
38488;DHT22;57384;51.986;4.458;2023-04-03T21:53:15;6.90;57.70
38488;DHT22;57384;51.986;4.458;2023-04-03T21:55:59;6.90;57.80
38488;DHT22;57384;51.986;4.458;2023-04-03T21:58:43;6.80;57.70
38488;DHT22;57384;51.986;4.458;2023-04-03T22:01:28;6.80;57.80
38488;DHT22;57384;51.986;4.458;2023-04-03T22:04:12;6.80;57.80
38488;DHT22;57384;51.986;4.458;2023-04-03T22:06:56;6.70;57.80
38488;DHT22;57384;51.986;4.458;2023-04-03T22:09:40;6.70;57.90
38488;DHT22;57384;51.986;4.458;2023-04-03T22:12:24;6.70;58.00
38488;DHT22;57384;51.986;4.458;2023-04-03T22:15:09;6.70;58.00
38488;DHT22;57384;51.986;4.458;2023-04-03T22:17:53;6.70;58.00